createdAt,value
2023-01-09T00:00:12.444Z,409.00
2023-01-09T00:00:42.562Z,406.00
2023-01-09T00:01:12.593Z,405.00
2023-01-09T00:01:42.625Z,407.00
2023-01-09T00:02:12.682Z,406.00
2023-01-09T00:02:42.724Z,407.00
2023-01-09T00:03:12.735Z,408.00
2023-01-09T00:03:42.969Z,408.00
2023-01-09T00:04:12.893Z,410.00
2023-01-09T00:04:42.933Z,411.00
2023-01-09T00:05:12.955Z,410.00
2023-01-09T00:05:43.008Z,411.00
2023-01-09T00:06:13.017Z,411.00
2023-01-09T00:06:43.044Z,413.00
2023-01-09T00:07:13.072Z,412.00
2023-01-09T00:07:43.137Z,411.00
2023-01-09T00:08:13.138Z,412.00
2023-01-09T00:08:43.173Z,409.00
2023-01-09T00:09:13.198Z,407.00
2023-01-09T00:09:43.230Z,406.00
2023-01-09T00:10:13.255Z,406.00
2023-01-09T00:10:43.313Z,405.00
2023-01-09T00:11:13.345Z,406.00
2023-01-09T00:11:43.367Z,407.00
2023-01-09T00:12:13.387Z,407.00
2023-01-09T00:12:43.412Z,407.00
2023-01-09T00:13:13.438Z,409.00
2023-01-09T00:13:43.459Z,408.00
2023-01-09T00:14:13.482Z,409.00
2023-01-09T00:14:43.511Z,411.00
2023-01-09T00:15:13.552Z,412.00
2023-01-09T00:15:43.639Z,410.00
2023-01-09T00:16:13.652Z,410.00
2023-01-09T00:16:43.753Z,411.00
2023-01-09T00:17:13.795Z,411.00
2023-01-09T00:17:43.826Z,411.00
2023-01-09T00:18:13.855Z,409.00
2023-01-09T00:18:43.901Z,407.00
2023-01-09T00:19:14.043Z,406.00
2023-01-09T00:19:43.907Z,405.00
2023-01-09T00:20:13.930Z,406.00
2023-01-09T00:20:43.980Z,406.00
2023-01-09T00:21:14.001Z,407.00
2023-01-09T00:21:44.027Z,406.00
2023-01-09T00:22:14.046Z,406.00
2023-01-09T00:22:44.074Z,404.00
2023-01-09T00:23:14.095Z,405.00
2023-01-09T00:23:44.128Z,404.00
2023-01-09T00:24:14.146Z,405.00
2023-01-09T00:24:44.168Z,405.00
2023-01-09T00:25:14.206Z,407.00
2023-01-09T00:25:44.259Z,408.00
2023-01-09T00:26:14.292Z,407.00
2023-01-09T00:26:44.342Z,409.00
2023-01-09T00:27:14.357Z,408.00
2023-01-09T00:27:44.378Z,408.00
2023-01-09T00:28:14.403Z,408.00
2023-01-09T00:28:44.449Z,407.00
2023-01-09T00:29:14.517Z,407.00
2023-01-09T00:29:44.520Z,408.00
2023-01-09T00:30:14.552Z,410.00
2023-01-09T00:30:44.643Z,410.00
2023-01-09T00:31:14.651Z,410.00
2023-01-09T00:31:44.682Z,410.00
2023-01-09T00:32:14.718Z,409.00
2023-01-09T00:32:44.739Z,409.00
2023-01-09T00:33:14.766Z,409.00
2023-01-09T00:33:44.811Z,408.00
2023-01-09T00:34:14.812Z,407.00
2023-01-09T00:34:44.867Z,406.00
2023-01-09T00:35:14.867Z,406.00
2023-01-09T00:35:44.931Z,406.00
2023-01-09T00:36:14.961Z,407.00
2023-01-09T00:36:45.002Z,405.00
2023-01-09T00:37:15.011Z,405.00
2023-01-09T00:37:45.037Z,406.00
2023-01-09T00:38:15.065Z,405.00
2023-01-09T00:38:45.101Z,404.00
2023-01-09T00:39:15.143Z,406.00
2023-01-09T00:39:45.169Z,406.00
2023-01-09T00:40:15.206Z,407.00
2023-01-09T00:40:45.250Z,408.00
2023-01-09T00:41:15.273Z,407.00
2023-01-09T00:41:45.295Z,405.00
2023-01-09T00:42:15.321Z,406.00
2023-01-09T00:42:45.361Z,405.00
2023-01-09T00:43:15.392Z,404.00
2023-01-09T00:43:45.414Z,405.00
2023-01-09T00:44:15.418Z,404.00
2023-01-09T00:44:45.547Z,403.00
2023-01-09T00:45:15.643Z,403.00
2023-01-09T00:45:45.688Z,402.00
2023-01-09T00:46:15.810Z,403.00
2023-01-09T00:46:45.693Z,404.00
2023-01-09T00:47:15.808Z,405.00
2023-01-09T00:47:45.790Z,406.00
2023-01-09T00:48:15.917Z,405.00
2023-01-09T00:48:46.014Z,405.00
2023-01-09T00:49:16.125Z,404.00
2023-01-09T00:49:46.257Z,406.00
2023-01-09T00:50:16.323Z,405.00
2023-01-09T00:50:46.293Z,407.00
2023-01-09T00:51:16.317Z,407.00
2023-01-09T00:51:46.308Z,408.00
2023-01-09T00:52:16.416Z,410.00
2023-01-09T00:52:46.534Z,412.00
2023-01-09T00:53:16.647Z,411.00
2023-01-09T00:53:46.759Z,411.00
2023-01-09T00:54:16.771Z,408.00
2023-01-09T00:54:46.800Z,409.00
2023-01-09T00:55:16.819Z,409.00
2023-01-09T00:55:46.870Z,410.00
2023-01-09T00:56:16.890Z,410.00
2023-01-09T00:56:46.931Z,411.00
2023-01-09T00:57:16.940Z,410.00
2023-01-09T00:57:46.965Z,410.00
2023-01-09T00:58:16.993Z,411.00
2023-01-09T00:58:47.017Z,412.00
2023-01-09T00:59:17.040Z,411.00
2023-01-09T00:59:47.063Z,414.00
2023-01-09T01:00:17.101Z,413.00
2023-01-09T01:00:47.299Z,413.00
2023-01-09T01:01:17.280Z,412.00
2023-01-09T01:01:47.373Z,414.00
2023-01-09T01:02:17.569Z,412.00
2023-01-09T01:02:47.388Z,413.00
2023-01-09T01:03:17.387Z,414.00
2023-01-09T01:03:47.424Z,413.00
2023-01-09T01:04:17.448Z,412.00
2023-01-09T01:04:47.471Z,411.00
2023-01-09T01:05:17.499Z,412.00
2023-01-09T01:05:47.566Z,413.00
2023-01-09T01:06:17.571Z,413.00
2023-01-09T01:06:47.602Z,413.00
2023-01-09T01:07:17.630Z,413.00
2023-01-09T01:07:47.661Z,412.00
2023-01-09T01:08:17.671Z,411.00
2023-01-09T01:08:47.698Z,412.00
2023-01-09T01:09:17.724Z,412.00
2023-01-09T01:09:47.746Z,412.00
2023-01-09T01:10:17.794Z,412.00
2023-01-09T01:10:47.805Z,413.00
2023-01-09T01:11:17.828Z,413.00
2023-01-09T01:11:47.866Z,413.00
2023-01-09T01:12:17.883Z,412.00
2023-01-09T01:12:47.904Z,411.00
2023-01-09T01:13:17.923Z,410.00
2023-01-09T01:13:47.954Z,411.00
2023-01-09T01:14:17.984Z,412.00
2023-01-09T01:14:48.016Z,414.00
2023-01-09T01:15:18.048Z,414.00
2023-01-09T01:15:48.066Z,413.00
2023-01-09T01:16:18.179Z,413.00
2023-01-09T01:16:48.187Z,415.00
2023-01-09T01:17:18.226Z,414.00
2023-01-09T01:17:48.250Z,412.00
2023-01-09T01:18:18.272Z,412.00
2023-01-09T01:18:48.295Z,412.00
2023-01-09T01:19:18.315Z,413.00
2023-01-09T01:19:48.355Z,414.00
2023-01-09T01:20:18.397Z,416.00
2023-01-09T01:20:48.420Z,415.00
2023-01-09T01:21:18.461Z,413.00
2023-01-09T01:21:48.474Z,413.00
2023-01-09T01:22:18.496Z,413.00
2023-01-09T01:22:48.520Z,415.00
2023-01-09T01:23:18.552Z,416.00
2023-01-09T01:23:48.567Z,416.00
2023-01-09T01:24:18.623Z,414.00
2023-01-09T01:24:48.647Z,413.00
2023-01-09T01:25:18.679Z,414.00
2023-01-09T01:25:48.821Z,416.00
2023-01-09T01:26:18.725Z,414.00
2023-01-09T01:26:48.749Z,413.00
2023-01-09T01:27:18.774Z,413.00
2023-01-09T01:27:48.810Z,415.00
2023-01-09T01:28:18.835Z,415.00
2023-01-09T01:28:48.856Z,414.00
2023-01-09T01:29:18.892Z,412.00
2023-01-09T01:29:48.913Z,413.00
2023-01-09T01:30:18.930Z,413.00
2023-01-09T01:30:49.027Z,413.00
2023-01-09T01:31:19.053Z,412.00
2023-01-09T01:31:49.083Z,411.00
2023-01-09T01:32:19.101Z,412.00
2023-01-09T01:32:49.147Z,412.00
2023-01-09T01:33:19.178Z,412.00
2023-01-09T01:33:49.212Z,412.00
2023-01-09T01:34:19.228Z,414.00
2023-01-09T01:34:49.265Z,412.00
2023-01-09T01:35:19.306Z,412.00
2023-01-09T01:35:49.325Z,413.00
2023-01-09T01:36:19.353Z,413.00
2023-01-09T01:36:49.409Z,413.00
2023-01-09T01:37:19.411Z,411.00
2023-01-09T01:37:49.449Z,410.00
2023-01-09T01:38:19.455Z,408.00
2023-01-09T01:38:49.491Z,408.00
2023-01-09T01:39:19.511Z,410.00
2023-01-09T01:39:49.538Z,406.00
2023-01-09T01:40:19.554Z,410.00
2023-01-09T01:40:49.593Z,413.00
2023-01-09T01:41:19.614Z,412.00
2023-01-09T01:41:49.659Z,412.00
2023-01-09T01:42:19.694Z,413.00
2023-01-09T01:42:49.700Z,415.00
2023-01-09T01:43:19.737Z,416.00
2023-01-09T01:43:49.756Z,415.00
2023-01-09T01:44:19.757Z,416.00
2023-01-09T01:44:49.870Z,416.00
2023-01-09T01:45:19.976Z,416.00
2023-01-09T01:45:50.181Z,417.00
2023-01-09T01:46:20.267Z,419.00
2023-01-09T01:46:50.239Z,419.00
2023-01-09T01:47:20.358Z,423.00
2023-01-09T01:47:50.474Z,421.00
2023-01-09T01:48:20.584Z,419.00
2023-01-09T01:48:50.573Z,420.00
2023-01-09T01:49:20.681Z,418.00
2023-01-09T01:49:50.672Z,416.00
2023-01-09T01:50:20.792Z,416.00
2023-01-09T01:50:50.898Z,416.00
2023-01-09T01:51:21.014Z,414.00
2023-01-09T01:51:51.145Z,413.00
2023-01-09T01:52:21.248Z,412.00
2023-01-09T01:52:51.240Z,411.00
2023-01-09T01:53:21.348Z,411.00
2023-01-09T01:53:51.458Z,410.00
2023-01-09T01:54:21.473Z,412.00
2023-01-09T01:54:51.501Z,411.00
2023-01-09T01:55:21.546Z,413.00
2023-01-09T01:55:51.561Z,412.00
2023-01-09T01:56:21.589Z,413.00
2023-01-09T01:56:51.608Z,413.00
2023-01-09T01:57:21.652Z,415.00
2023-01-09T01:57:51.667Z,415.00
2023-01-09T01:58:21.701Z,415.00
2023-01-09T01:58:51.747Z,415.00
2023-01-09T01:59:21.772Z,416.00
2023-01-09T01:59:51.802Z,417.00
2023-01-09T02:00:21.838Z,418.00
2023-01-09T02:00:51.934Z,419.00
2023-01-09T02:01:22.079Z,418.00
2023-01-09T02:01:52.170Z,417.00
2023-01-09T02:02:22.272Z,417.00
2023-01-09T02:02:52.261Z,416.00
2023-01-09T02:03:22.263Z,415.00
2023-01-09T02:03:52.298Z,414.00
2023-01-09T02:04:22.329Z,413.00
2023-01-09T02:04:52.357Z,414.00
2023-01-09T02:05:22.565Z,413.00
2023-01-09T02:05:52.478Z,412.00
2023-01-09T02:06:22.501Z,413.00
2023-01-09T02:06:52.521Z,413.00
2023-01-09T02:07:22.593Z,414.00
2023-01-09T02:07:52.597Z,414.00
2023-01-09T02:08:22.617Z,414.00
2023-01-09T02:08:52.658Z,413.00
2023-01-09T02:09:22.699Z,412.00
2023-01-09T02:09:52.718Z,412.00
2023-01-09T02:10:22.749Z,410.00
2023-01-09T02:10:52.786Z,410.00
2023-01-09T02:11:22.818Z,412.00
2023-01-09T02:11:52.834Z,411.00
2023-01-09T02:12:22.865Z,415.00
2023-01-09T02:12:52.895Z,415.00
2023-01-09T02:13:22.917Z,416.00
2023-01-09T02:13:52.952Z,417.00
2023-01-09T02:14:22.976Z,417.00
2023-01-09T02:14:52.991Z,417.00
2023-01-09T02:15:23.016Z,415.00
2023-01-09T02:15:53.099Z,416.00
2023-01-09T02:16:23.144Z,415.00
2023-01-09T02:16:53.164Z,415.00
2023-01-09T02:17:23.204Z,416.00
2023-01-09T02:17:53.223Z,416.00
2023-01-09T02:18:23.257Z,417.00
2023-01-09T02:18:53.303Z,417.00
2023-01-09T02:19:23.315Z,418.00
2023-01-09T02:19:53.346Z,417.00
2023-01-09T02:20:23.383Z,416.00
2023-01-09T02:20:53.414Z,416.00
2023-01-09T02:21:23.443Z,417.00
2023-01-09T02:21:53.465Z,417.00
2023-01-09T02:22:23.489Z,417.00
2023-01-09T02:22:53.538Z,417.00
2023-01-09T02:23:23.545Z,417.00
2023-01-09T02:23:53.564Z,418.00
2023-01-09T02:24:23.604Z,417.00
2023-01-09T02:24:53.630Z,416.00
2023-01-09T02:25:23.798Z,416.00
2023-01-09T02:25:53.713Z,415.00
2023-01-09T02:26:23.726Z,416.00
2023-01-09T02:26:53.751Z,416.00
2023-01-09T02:27:23.778Z,417.00
2023-01-09T02:27:53.796Z,417.00
2023-01-09T02:28:23.831Z,415.00
2023-01-09T02:28:53.844Z,415.00
2023-01-09T02:29:23.885Z,414.00
2023-01-09T02:29:53.899Z,414.00
2023-01-09T02:30:23.998Z,416.00
2023-01-09T02:30:54.021Z,416.00
2023-01-09T02:31:24.123Z,417.00
2023-01-09T02:31:54.168Z,415.00
2023-01-09T02:32:24.078Z,416.00
2023-01-09T02:32:54.101Z,415.00
2023-01-09T02:33:24.129Z,416.00
2023-01-09T02:33:54.168Z,416.00
2023-01-09T02:34:24.187Z,416.00
2023-01-09T02:34:54.216Z,416.00
2023-01-09T02:35:24.241Z,417.00
2023-01-09T02:35:54.279Z,420.00
2023-01-09T02:36:24.323Z,420.00
2023-01-09T02:36:54.329Z,419.00
2023-01-09T02:37:24.358Z,419.00
2023-01-09T02:37:54.390Z,420.00
2023-01-09T02:38:24.444Z,417.00
2023-01-09T02:38:54.441Z,414.00
2023-01-09T02:39:24.464Z,414.00
2023-01-09T02:39:54.515Z,416.00
2023-01-09T02:40:24.548Z,418.00
2023-01-09T02:40:54.570Z,417.00
2023-01-09T02:41:24.603Z,417.00
2023-01-09T02:41:54.633Z,418.00
2023-01-09T02:42:24.654Z,418.00
2023-01-09T02:42:54.685Z,418.00
2023-01-09T02:43:24.710Z,417.00
2023-01-09T02:43:54.742Z,416.00
2023-01-09T02:44:24.842Z,415.00
2023-01-09T02:44:54.960Z,415.00
2023-01-09T02:45:25.087Z,410.00
2023-01-09T02:45:55.148Z,410.00
2023-01-09T02:46:25.113Z,411.00
2023-01-09T02:46:55.222Z,408.00
2023-01-09T02:47:25.335Z,410.00
2023-01-09T02:47:55.454Z,410.00
2023-01-09T02:48:25.567Z,410.00
2023-01-09T02:48:55.675Z,411.00
2023-01-09T02:49:25.790Z,411.00
2023-01-09T02:49:55.897Z,410.00
2023-01-09T02:50:25.904Z,410.00
2023-01-09T02:50:56.013Z,412.00
2023-01-09T02:51:26.018Z,411.00
2023-01-09T02:51:56.118Z,410.00
2023-01-09T02:52:26.236Z,412.00
2023-01-09T02:52:56.349Z,415.00
2023-01-09T02:53:26.361Z,415.00
2023-01-09T02:53:56.463Z,417.00
2023-01-09T02:54:26.497Z,416.00
2023-01-09T02:54:56.499Z,418.00
2023-01-09T02:55:26.533Z,419.00
2023-01-09T02:55:56.576Z,418.00
2023-01-09T02:56:26.594Z,419.00
2023-01-09T02:56:56.617Z,420.00
2023-01-09T02:57:26.644Z,419.00
2023-01-09T02:57:56.671Z,419.00
2023-01-09T02:58:26.702Z,420.00
2023-01-09T02:58:56.726Z,420.00
2023-01-09T02:59:26.761Z,418.00
2023-01-09T02:59:56.785Z,418.00
2023-01-09T03:00:26.812Z,417.00
2023-01-09T03:00:56.998Z,419.00
2023-01-09T03:01:27.036Z,417.00
2023-01-09T03:01:57.117Z,418.00
2023-01-09T03:02:27.045Z,417.00
2023-01-09T03:02:57.142Z,417.00
2023-01-09T03:03:27.159Z,416.00
2023-01-09T03:03:57.181Z,415.00
2023-01-09T03:04:27.203Z,412.00
2023-01-09T03:04:57.227Z,412.00
2023-01-09T03:05:27.258Z,415.00
2023-01-09T03:05:57.287Z,414.00
2023-01-09T03:06:27.782Z,413.00
2023-01-09T03:06:57.330Z,415.00
2023-01-09T03:07:27.367Z,414.00
2023-01-09T03:07:57.389Z,413.00
2023-01-09T03:08:27.414Z,414.00
2023-01-09T03:08:57.463Z,413.00
2023-01-09T03:09:27.490Z,413.00
2023-01-09T03:09:57.515Z,413.00
2023-01-09T03:10:27.538Z,414.00
2023-01-09T03:10:57.571Z,416.00
2023-01-09T03:11:27.602Z,415.00
2023-01-09T03:11:57.652Z,414.00
2023-01-09T03:12:27.662Z,414.00
2023-01-09T03:12:59.046Z,414.00
2023-01-09T03:13:27.740Z,414.00
2023-01-09T03:13:57.766Z,414.00
2023-01-09T03:14:27.795Z,413.00
2023-01-09T03:14:57.827Z,412.00
2023-01-09T03:15:27.839Z,414.00
2023-01-09T03:15:58.067Z,414.00
2023-01-09T03:16:27.885Z,412.00
2023-01-09T03:16:57.891Z,412.00
2023-01-09T03:17:27.919Z,413.00
2023-01-09T03:17:57.948Z,413.00
2023-01-09T03:18:27.977Z,413.00
2023-01-09T03:18:57.999Z,412.00
2023-01-09T03:19:28.033Z,413.00
2023-01-09T03:19:58.067Z,412.00
2023-01-09T03:20:28.095Z,411.00
2023-01-09T03:20:58.129Z,412.00
2023-01-09T03:21:28.151Z,413.00
2023-01-09T03:21:58.179Z,412.00
2023-01-09T03:22:28.200Z,410.00
2023-01-09T03:22:58.275Z,411.00
2023-01-09T03:23:28.298Z,410.00
2023-01-09T03:23:58.315Z,410.00
2023-01-09T03:24:28.359Z,409.00
2023-01-09T03:24:58.363Z,409.00
2023-01-09T03:25:28.393Z,410.00
2023-01-09T03:25:58.420Z,411.00
2023-01-09T03:26:28.443Z,410.00
2023-01-09T03:26:58.468Z,410.00
2023-01-09T03:27:28.520Z,409.00
2023-01-09T03:27:58.532Z,407.00
2023-01-09T03:28:28.549Z,408.00
2023-01-09T03:28:58.579Z,409.00
2023-01-09T03:29:29.603Z,408.00
2023-01-09T03:29:58.721Z,411.00
2023-01-09T03:30:28.758Z,413.00
2023-01-09T03:30:58.788Z,413.00
2023-01-09T03:31:28.846Z,413.00
2023-01-09T03:31:58.887Z,413.00
2023-01-09T03:32:28.913Z,414.00
2023-01-09T03:32:58.964Z,414.00
2023-01-09T03:33:28.967Z,415.00
2023-01-09T03:33:59.003Z,416.00
2023-01-09T03:34:29.016Z,418.00
2023-01-09T03:34:59.047Z,419.00
2023-01-09T03:35:29.069Z,419.00
2023-01-09T03:35:59.105Z,419.00
2023-01-09T03:36:29.131Z,420.00
2023-01-09T03:36:59.161Z,415.00
2023-01-09T03:37:29.196Z,415.00
2023-01-09T03:37:59.236Z,413.00
2023-01-09T03:38:29.247Z,414.00
2023-01-09T03:38:59.292Z,412.00
2023-01-09T03:39:29.294Z,412.00
2023-01-09T03:39:59.348Z,413.00
2023-01-09T03:40:29.344Z,414.00
2023-01-09T03:40:59.388Z,416.00
2023-01-09T03:41:29.414Z,418.00
2023-01-09T03:41:59.438Z,417.00
2023-01-09T03:42:29.466Z,418.00
2023-01-09T03:42:59.490Z,417.00
2023-01-09T03:43:29.527Z,418.00
2023-01-09T03:43:59.559Z,416.00
2023-01-09T03:44:29.671Z,415.00
2023-01-09T03:44:59.798Z,415.00
2023-01-09T03:45:29.938Z,415.00
2023-01-09T03:46:00.014Z,417.00
2023-01-09T03:46:29.917Z,418.00
2023-01-09T03:47:00.025Z,419.00
2023-01-09T03:47:30.134Z,419.00
2023-01-09T03:48:00.248Z,420.00
2023-01-09T03:48:30.358Z,421.00
2023-01-09T03:49:00.476Z,422.00
2023-01-09T03:49:30.600Z,422.00
2023-01-09T03:50:00.701Z,422.00
2023-01-09T03:50:30.819Z,419.00
2023-01-09T03:51:00.823Z,420.00
2023-01-09T03:51:30.815Z,420.00
2023-01-09T03:52:00.920Z,420.00
2023-01-09T03:52:31.036Z,419.00
2023-01-09T03:53:01.148Z,420.00
2023-01-09T03:53:31.267Z,421.00
2023-01-09T03:54:01.378Z,422.00
2023-01-09T03:54:31.400Z,422.00
2023-01-09T03:55:01.433Z,422.00
2023-01-09T03:55:31.482Z,423.00
2023-01-09T03:56:01.487Z,424.00
2023-01-09T03:56:31.517Z,423.00
2023-01-09T03:57:01.547Z,422.00
2023-01-09T03:57:31.566Z,421.00
2023-01-09T03:58:01.589Z,419.00
2023-01-09T03:58:31.616Z,421.00
2023-01-09T03:59:01.644Z,421.00
2023-01-09T03:59:31.675Z,419.00
2023-01-09T04:00:01.734Z,421.00
2023-01-09T04:00:31.730Z,423.00
2023-01-09T04:01:01.987Z,420.00
2023-01-09T04:01:32.011Z,421.00
2023-01-09T04:02:03.908Z,423.00
2023-01-09T04:02:31.898Z,424.00
2023-01-09T04:03:01.925Z,423.00
2023-01-09T04:03:32.011Z,423.00
2023-01-09T04:04:02.091Z,424.00
2023-01-09T04:04:32.060Z,424.00
2023-01-09T04:05:02.091Z,426.00
2023-01-09T04:05:32.116Z,427.00
2023-01-09T04:06:02.150Z,426.00
2023-01-09T04:06:32.170Z,424.00
2023-01-09T04:07:02.215Z,424.00
2023-01-09T04:07:32.225Z,425.00
2023-01-09T04:08:02.257Z,425.00
2023-01-09T04:08:32.274Z,424.00
2023-01-09T04:09:02.299Z,424.00
2023-01-09T04:09:32.328Z,424.00
2023-01-09T04:10:02.357Z,423.00
2023-01-09T04:10:32.396Z,422.00
2023-01-09T04:11:02.463Z,421.00
2023-01-09T04:11:32.464Z,421.00
2023-01-09T04:12:02.489Z,420.00
2023-01-09T04:12:32.506Z,420.00
2023-01-09T04:13:02.535Z,421.00
2023-01-09T04:13:32.560Z,422.00
2023-01-09T04:14:02.591Z,419.00
2023-01-09T04:14:32.619Z,420.00
2023-01-09T04:15:02.644Z,420.00
2023-01-09T04:15:32.675Z,421.00
2023-01-09T04:16:02.759Z,420.00
2023-01-09T04:16:32.860Z,419.00
2023-01-09T04:17:02.883Z,419.00
2023-01-09T04:17:32.908Z,419.00
2023-01-09T04:18:02.946Z,419.00
2023-01-09T04:18:32.972Z,419.00
2023-01-09T04:19:02.995Z,418.00
2023-01-09T04:19:33.023Z,418.00
2023-01-09T04:20:03.052Z,419.00
2023-01-09T04:20:33.092Z,419.00
2023-01-09T04:21:03.118Z,418.00
2023-01-09T04:21:33.146Z,419.00
2023-01-09T04:22:03.186Z,417.00
2023-01-09T04:22:33.208Z,417.00
2023-01-09T04:23:03.225Z,418.00
2023-01-09T04:23:33.247Z,419.00
2023-01-09T04:24:03.274Z,417.00
2023-01-09T04:24:33.297Z,417.00
2023-01-09T04:25:03.331Z,418.00
2023-01-09T04:25:33.351Z,418.00
2023-01-09T04:26:03.378Z,418.00
2023-01-09T04:26:33.435Z,417.00
2023-01-09T04:27:03.431Z,416.00
2023-01-09T04:27:33.452Z,419.00
2023-01-09T04:28:03.489Z,422.00
2023-01-09T04:28:33.508Z,423.00
2023-01-09T04:29:03.529Z,416.00
2023-01-09T04:29:33.572Z,418.00
2023-01-09T04:30:03.609Z,416.00
2023-01-09T04:30:33.629Z,415.00
2023-01-09T04:31:03.666Z,416.00
2023-01-09T04:31:33.756Z,415.00
2023-01-09T04:32:03.790Z,415.00
2023-01-09T04:32:33.831Z,416.00
2023-01-09T04:33:03.857Z,417.00
2023-01-09T04:33:33.881Z,416.00
2023-01-09T04:34:03.921Z,417.00
2023-01-09T04:34:33.941Z,416.00
2023-01-09T04:35:03.963Z,417.00
2023-01-09T04:35:33.983Z,416.00
2023-01-09T04:36:04.035Z,418.00
2023-01-09T04:36:34.056Z,416.00
2023-01-09T04:37:04.093Z,417.00
2023-01-09T04:37:34.117Z,418.00
2023-01-09T04:38:04.162Z,417.00
2023-01-09T04:38:34.183Z,418.00
2023-01-09T04:39:04.207Z,417.00
2023-01-09T04:39:34.237Z,416.00
2023-01-09T04:40:04.257Z,417.00
2023-01-09T04:40:34.277Z,419.00
2023-01-09T04:41:04.311Z,419.00
2023-01-09T04:41:34.363Z,417.00
2023-01-09T04:42:04.401Z,415.00
2023-01-09T04:42:34.403Z,414.00
2023-01-09T04:43:04.431Z,414.00
2023-01-09T04:43:34.470Z,417.00
2023-01-09T04:44:04.471Z,420.00
2023-01-09T04:44:34.609Z,420.00
2023-01-09T04:45:04.704Z,421.00
2023-01-09T04:45:34.918Z,445.00
2023-01-09T04:46:05.005Z,438.00
2023-01-09T04:46:35.026Z,435.00
2023-01-09T04:47:05.109Z,432.00
2023-01-09T04:47:35.221Z,431.00
2023-01-09T04:48:05.331Z,431.00
2023-01-09T04:48:35.519Z,432.00
2023-01-09T04:49:05.485Z,434.00
2023-01-09T04:49:35.478Z,435.00
2023-01-09T04:50:05.622Z,435.00
2023-01-09T04:50:35.717Z,433.00
2023-01-09T04:51:05.829Z,431.00
2023-01-09T04:51:35.953Z,432.00
2023-01-09T04:52:06.062Z,430.00
2023-01-09T04:52:38.792Z,432.00
2023-01-09T04:53:06.278Z,431.00
2023-01-09T04:53:36.408Z,429.00
2023-01-09T04:54:06.389Z,431.00
2023-01-09T04:54:36.413Z,431.00
2023-01-09T04:55:06.443Z,430.00
2023-01-09T04:55:36.468Z,428.00
2023-01-09T04:56:06.492Z,426.00
2023-01-09T04:56:36.538Z,426.00
2023-01-09T04:57:06.543Z,429.00
2023-01-09T04:57:36.704Z,431.00
2023-01-09T04:58:06.574Z,432.00
2023-01-09T04:58:36.594Z,431.00
2023-01-09T04:59:06.615Z,431.00
2023-01-09T04:59:36.638Z,431.00
2023-01-09T05:00:06.660Z,433.00
2023-01-09T05:00:36.687Z,433.00
2023-01-09T05:01:06.808Z,434.00
2023-01-09T05:01:36.876Z,437.00
2023-01-09T05:02:06.955Z,438.00
2023-01-09T05:02:36.890Z,443.00
2023-01-09T05:03:06.931Z,443.00
2023-01-09T05:03:36.937Z,446.00
2023-01-09T05:04:07.044Z,448.00
2023-01-09T05:04:37.113Z,449.00
2023-01-09T05:05:09.745Z,451.00
2023-01-09T05:05:37.190Z,452.00
2023-01-09T05:06:07.215Z,452.00
2023-01-09T05:06:37.257Z,451.00
2023-01-09T05:07:07.273Z,452.00
2023-01-09T05:07:37.292Z,453.00
2023-01-09T05:08:07.314Z,451.00
2023-01-09T05:08:37.361Z,449.00
2023-01-09T05:09:07.402Z,449.00
2023-01-09T05:09:37.403Z,449.00
2023-01-09T05:10:07.430Z,448.00
2023-01-09T05:10:37.450Z,451.00
2023-01-09T05:11:07.472Z,450.00
2023-01-09T05:11:37.504Z,449.00
2023-01-09T05:12:07.537Z,450.00
2023-01-09T05:12:37.559Z,460.00
2023-01-09T05:13:07.604Z,461.00
2023-01-09T05:13:37.619Z,463.00
2023-01-09T05:14:07.643Z,461.00
2023-01-09T05:14:37.661Z,459.00
2023-01-09T05:15:07.689Z,458.00
2023-01-09T05:15:37.756Z,457.00
2023-01-09T05:16:07.840Z,455.00
2023-01-09T05:16:37.887Z,454.00
2023-01-09T05:17:07.913Z,456.00
2023-01-09T05:17:37.958Z,459.00
2023-01-09T05:18:07.968Z,458.00
2023-01-09T05:18:38.000Z,458.00
2023-01-09T05:19:08.018Z,461.00
2023-01-09T05:19:38.050Z,462.00
2023-01-09T05:20:08.088Z,460.00
2023-01-09T05:20:38.102Z,462.00
2023-01-09T05:21:08.135Z,462.00
2023-01-09T05:21:38.159Z,463.00
2023-01-09T05:22:08.183Z,463.00
2023-01-09T05:22:38.209Z,466.00
2023-01-09T05:23:08.236Z,467.00
2023-01-09T05:23:38.275Z,476.00
2023-01-09T05:24:08.293Z,478.00
2023-01-09T05:24:38.324Z,480.00
2023-01-09T05:25:08.348Z,476.00
2023-01-09T05:25:38.374Z,476.00
2023-01-09T05:26:08.404Z,476.00
2023-01-09T05:26:38.429Z,476.00
2023-01-09T05:27:08.454Z,477.00
2023-01-09T05:27:38.482Z,478.00
2023-01-09T05:28:08.508Z,482.00
2023-01-09T05:28:38.559Z,487.00
2023-01-09T05:29:08.556Z,492.00
2023-01-09T05:29:38.594Z,492.00
2023-01-09T05:30:08.620Z,490.00
2023-01-09T05:30:38.632Z,487.00
2023-01-09T05:31:08.671Z,487.00
2023-01-09T05:31:38.768Z,489.00
2023-01-09T05:32:08.788Z,499.00
2023-01-09T05:32:38.817Z,514.00
2023-01-09T05:33:08.850Z,512.00
2023-01-09T05:33:38.877Z,512.00
2023-01-09T05:34:08.899Z,516.00
2023-01-09T05:34:38.920Z,513.00
2023-01-09T05:35:08.944Z,511.00
2023-01-09T05:35:38.971Z,509.00
2023-01-09T05:36:09.012Z,508.00
2023-01-09T05:36:39.037Z,508.00
2023-01-09T05:37:09.071Z,507.00
2023-01-09T05:37:39.111Z,506.00
2023-01-09T05:38:09.134Z,507.00
2023-01-09T05:38:39.168Z,511.00
2023-01-09T05:39:09.205Z,514.00
2023-01-09T05:39:39.249Z,518.00
2023-01-09T05:40:09.258Z,523.00
2023-01-09T05:40:40.572Z,523.00
2023-01-09T05:41:09.356Z,524.00
2023-01-09T05:41:39.393Z,522.00
2023-01-09T05:42:09.426Z,519.00
2023-01-09T05:42:39.446Z,519.00
2023-01-09T05:43:09.472Z,519.00
2023-01-09T05:43:39.514Z,518.00
2023-01-09T05:44:09.528Z,517.00
2023-01-09T05:44:39.614Z,517.00
2023-01-09T05:45:09.726Z,516.00
2023-01-09T05:45:39.902Z,516.00
2023-01-09T05:46:10.002Z,516.00
2023-01-09T05:46:39.887Z,515.00
2023-01-09T05:47:10.001Z,515.00
2023-01-09T05:47:40.127Z,516.00
2023-01-09T05:48:10.230Z,518.00
2023-01-09T05:48:40.344Z,520.00
2023-01-09T05:49:10.446Z,520.00
2023-01-09T05:49:40.620Z,522.00
2023-01-09T05:50:10.636Z,525.00
2023-01-09T05:50:40.746Z,528.00
2023-01-09T05:51:10.869Z,529.00
2023-01-09T05:51:40.974Z,530.00
2023-01-09T05:52:11.099Z,529.00
2023-01-09T05:52:41.199Z,529.00
2023-01-09T05:53:11.211Z,526.00
2023-01-09T05:53:41.337Z,525.00
2023-01-09T05:54:11.322Z,524.00
2023-01-09T05:54:41.352Z,526.00
2023-01-09T05:55:11.385Z,522.00
2023-01-09T05:55:41.422Z,522.00
2023-01-09T05:56:11.973Z,521.00
2023-01-09T05:56:41.557Z,523.00
2023-01-09T05:57:11.608Z,523.00
2023-01-09T05:57:41.624Z,524.00
2023-01-09T05:58:11.652Z,524.00
2023-01-09T05:58:41.689Z,523.00
2023-01-09T05:59:11.714Z,523.00
2023-01-09T05:59:41.764Z,519.00
2023-01-09T06:00:11.764Z,519.00
2023-01-09T06:00:41.791Z,521.00
2023-01-09T06:01:11.880Z,518.00
2023-01-09T06:01:41.975Z,517.00
2023-01-09T06:02:12.074Z,518.00
2023-01-09T06:02:42.386Z,517.00
2023-01-09T06:03:12.211Z,514.00
2023-01-09T06:03:42.122Z,513.00
2023-01-09T06:04:12.169Z,513.00
2023-01-09T06:04:42.193Z,515.00
2023-01-09T06:05:12.209Z,514.00
2023-01-09T06:05:42.244Z,513.00
2023-01-09T06:06:12.269Z,515.00
2023-01-09T06:06:42.328Z,515.00
2023-01-09T06:07:15.523Z,514.00
2023-01-09T06:07:42.418Z,512.00
2023-01-09T06:08:12.447Z,513.00
2023-01-09T06:08:42.490Z,512.00
2023-01-09T06:09:12.532Z,510.00
2023-01-09T06:09:42.548Z,510.00
2023-01-09T06:10:12.576Z,513.00
2023-01-09T06:10:42.613Z,513.00
2023-01-09T06:11:12.646Z,513.00
2023-01-09T06:11:42.698Z,514.00
2023-01-09T06:12:12.718Z,513.00
2023-01-09T06:12:42.741Z,513.00
2023-01-09T06:13:12.763Z,511.00
2023-01-09T06:13:42.784Z,511.00
2023-01-09T06:14:12.826Z,511.00
2023-01-09T06:14:42.843Z,511.00